createdAt,value
2023-01-11T00:03:59.230Z,17.70
2023-01-11T00:08:00.222Z,21.43
2023-01-11T00:12:01.722Z,22.07
2023-01-11T00:16:05.354Z,24.87
2023-01-11T00:20:07.815Z,16.43
2023-01-11T00:24:08.819Z,19.60
2023-01-11T00:28:10.005Z,17.47
2023-01-11T00:32:10.952Z,14.50
2023-01-11T00:36:12.377Z,16.57
2023-01-11T00:40:13.678Z,17.60
2023-01-11T00:44:33.228Z,15.37
2023-01-11T00:48:34.217Z,19.13
2023-01-11T00:52:35.198Z,15.87
2023-01-11T00:56:36.482Z,10.60
2023-01-11T01:00:38.185Z,13.20
2023-01-11T01:04:39.547Z,14.60
2023-01-11T01:08:40.528Z,12.80
2023-01-11T01:13:00.116Z,12.27
2023-01-11T01:17:06.511Z,13.03
2023-01-11T01:21:07.508Z,12.83
2023-01-11T01:29:17.824Z,9.00
2023-01-11T01:33:18.939Z,13.97
2023-01-11T01:37:19.981Z,11.17
2023-01-11T01:41:20.921Z,13.00
2023-01-11T01:45:27.884Z,13.93
2023-01-11T01:49:28.903Z,11.17
2023-01-11T01:53:36.774Z,11.67
2023-01-11T01:57:40.554Z,12.90
2023-01-11T02:01:47.519Z,13.73
2023-01-11T02:05:51.222Z,14.37
2023-01-11T02:10:02.226Z,13.00
2023-01-11T02:14:06.812Z,10.50
2023-01-11T02:18:13.635Z,10.57
2023-01-11T02:22:18.526Z,17.30
2023-01-11T02:26:41.468Z,14.53
2023-01-11T02:31:07.528Z,11.63
2023-01-11T02:35:18.105Z,12.57
2023-01-11T02:39:22.911Z,11.83
2023-01-11T02:43:49.385Z,11.33
2023-01-11T02:47:57.122Z,8.00
2023-01-11T02:52:04.703Z,10.27
2023-01-11T02:56:09.522Z,11.70
2023-01-11T03:00:11.892Z,7.67
2023-01-11T03:04:24.607Z,12.00
2023-01-11T03:08:44.076Z,11.43
2023-01-11T03:12:51.558Z,8.63
2023-01-11T03:17:20.638Z,9.63
2023-01-11T03:21:46.062Z,11.00
2023-01-11T03:26:05.895Z,9.23
2023-01-11T03:30:10.896Z,6.90
2023-01-11T03:34:18.416Z,6.73
2023-01-11T03:38:23.201Z,7.90
2023-01-11T03:42:26.836Z,7.30
2023-01-11T03:46:40.534Z,11.33
2023-01-11T03:50:44.145Z,8.97
2023-01-11T03:54:45.321Z,7.67
2023-01-11T03:58:46.599Z,9.20
2023-01-11T04:02:48.528Z,7.30
2023-01-11T04:06:49.640Z,7.87
2023-01-11T04:10:50.927Z,6.90
2023-01-11T04:14:52.086Z,7.30
2023-01-11T04:18:53.206Z,5.97
2023-01-11T04:22:54.159Z,6.20
2023-01-11T04:26:55.138Z,5.40
2023-01-11T04:30:56.112Z,5.17
2023-01-11T04:34:57.113Z,7.37
2023-01-11T04:38:58.189Z,3.33
2023-01-11T04:43:01.053Z,2.90
2023-01-11T04:47:02.123Z,2.40
2023-01-11T04:51:03.417Z,2.30
2023-01-11T04:55:04.892Z,2.47
2023-01-11T04:59:05.832Z,3.10
2023-01-11T05:03:06.899Z,2.97
2023-01-11T05:07:08.463Z,4.60
2023-01-11T05:11:09.661Z,3.20
2023-01-11T05:15:10.907Z,3.37
2023-01-11T05:19:11.873Z,3.73
2023-01-11T05:23:12.850Z,2.43
2023-01-11T05:27:13.808Z,2.57
2023-01-11T05:31:15.485Z,3.13
2023-01-11T05:35:16.497Z,3.03
2023-01-11T05:39:17.436Z,3.47
2023-01-11T05:43:18.438Z,6.83
2023-01-11T05:47:19.421Z,3.03
2023-01-11T05:51:20.373Z,3.50
2023-01-11T05:55:21.337Z,2.97
2023-01-11T05:59:22.271Z,2.60
2023-01-11T06:03:24.840Z,3.77
2023-01-11T06:07:25.856Z,2.67
2023-01-11T06:11:26.920Z,2.37
2023-01-11T06:15:27.899Z,2.58
2023-01-11T06:19:28.865Z,1.90
2023-01-11T06:23:31.928Z,1.73
2023-01-11T06:27:32.794Z,1.60
2023-01-11T06:31:33.750Z,1.50
2023-01-11T06:35:42.342Z,1.87
2023-01-11T06:39:43.381Z,2.10
2023-01-11T06:43:44.406Z,1.82
2023-01-11T06:47:45.353Z,1.57
2023-01-11T06:51:47.336Z,2.10
2023-01-11T06:55:52.922Z,2.23
2023-01-11T06:59:56.942Z,3.03
2023-01-11T07:03:57.935Z,3.40
2023-01-11T07:07:59.065Z,4.13
2023-01-11T07:12:00.141Z,4.20
2023-01-11T07:16:01.312Z,4.77
2023-01-11T07:20:03.135Z,6.27
2023-01-11T07:24:04.872Z,5.67
2023-01-11T07:28:07.681Z,6.50
2023-01-11T07:32:10.824Z,6.90
2023-01-11T07:36:13.097Z,6.03
2023-01-11T07:40:17.240Z,8.20
2023-01-11T07:44:18.434Z,7.70
2023-01-11T07:48:24.531Z,7.90
2023-01-11T07:52:27.835Z,10.23
2023-01-11T07:56:29.910Z,9.30
2023-01-11T08:00:31.632Z,8.00
2023-01-11T08:04:34.527Z,8.10
2023-01-11T08:08:36.634Z,7.57
2023-01-11T08:13:01.833Z,5.63
2023-01-11T08:17:05.020Z,4.97
2023-01-11T08:21:07.761Z,7.00
2023-01-11T08:25:11.290Z,6.17
2023-01-11T08:29:13.489Z,4.00
2023-01-11T08:33:15.926Z,5.63
2023-01-11T08:37:18.313Z,4.90
2023-01-11T08:41:21.417Z,5.60
2023-01-11T08:45:22.648Z,5.43
2023-01-11T08:49:24.038Z,4.33
2023-01-11T08:53:26.475Z,5.60
2023-01-11T08:57:28.357Z,5.60
2023-01-11T09:01:31.014Z,5.97
2023-01-11T09:05:34.419Z,4.23
2023-01-11T09:09:37.491Z,5.40
2023-01-11T09:13:39.304Z,3.50
2023-01-11T09:17:41.155Z,4.00
2023-01-11T09:21:44.719Z,3.23
2023-01-11T09:25:47.100Z,2.50
2023-01-11T09:29:48.110Z,2.03
2023-01-11T09:33:49.170Z,2.10
2023-01-11T09:37:51.852Z,1.80
2023-01-11T09:42:14.955Z,1.50
2023-01-11T09:46:18.127Z,2.03
2023-01-11T09:50:23.336Z,0.60
2023-01-11T09:54:26.634Z,0.73
2023-01-11T09:59:06.925Z,0.60
2023-01-11T10:03:24.474Z,1.00
2023-01-11T10:07:38.684Z,1.30
2023-01-11T10:18:29.104Z,1.50
2023-01-11T10:20:24.950Z,0.87
2023-01-11T10:24:34.748Z,0.47
2023-01-11T10:28:46.947Z,0.50
2023-01-11T10:33:07.850Z,0.60
2023-01-11T10:37:20.567Z,0.40
2023-01-11T10:41:36.419Z,0.60
2023-01-11T10:45:52.862Z,1.80
2023-01-11T10:50:18.811Z,4.57
2023-01-11T10:54:28.007Z,0.80
2023-01-11T10:58:39.067Z,2.23
2023-01-11T11:02:44.044Z,1.30
2023-01-11T11:06:54.831Z,1.33
2023-01-11T11:11:20.610Z,4.20
2023-01-11T11:15:25.567Z,0.80
2023-01-11T11:19:31.440Z,0.50
2023-01-11T11:23:34.315Z,1.00
2023-01-11T11:27:48.113Z,1.27
2023-01-11T11:31:50.270Z,2.60
2023-01-11T11:36:01.600Z,0.60
2023-01-11T11:40:03.976Z,0.90
2023-01-11T11:44:17.255Z,0.77
2023-01-11T11:48:18.475Z,0.50
2023-01-11T11:52:20.050Z,0.70
2023-01-11T11:56:30.202Z,0.60
2023-01-11T12:00:39.511Z,0.83
2023-01-11T12:04:46.676Z,0.50
2023-01-11T12:08:48.360Z,1.10
2023-01-11T12:12:52.965Z,1.00
2023-01-11T12:16:54.248Z,0.50
2023-01-11T12:20:55.395Z,1.03
2023-01-11T12:25:09.387Z,1.50
2023-01-11T12:29:20.473Z,0.60
2023-01-11T12:33:37.515Z,0.60
2023-01-11T12:37:45.275Z,0.87
2023-01-11T12:41:53.694Z,0.73
2023-01-11T12:46:15.222Z,0.97
2023-01-11T12:50:24.325Z,0.70
2023-01-11T12:54:44.772Z,0.93
2023-01-11T12:59:01.883Z,2.00
2023-01-11T13:07:31.413Z,1.40
2023-01-11T13:11:36.531Z,1.20
2023-01-11T13:15:48.311Z,5.77
2023-01-11T13:20:11.200Z,6.47
2023-01-11T13:24:16.084Z,2.00
2023-01-11T13:28:24.420Z,3.93
2023-01-11T13:32:27.738Z,2.90
2023-01-11T13:36:36.257Z,2.87
2023-01-11T13:40:41.272Z,3.00
2023-01-11T13:44:55.231Z,5.80
2023-01-11T13:49:12.065Z,6.07
2023-01-11T13:53:34.441Z,3.20
2023-01-11T13:57:57.815Z,3.23
2023-01-11T14:02:14.451Z,3.20
2023-01-11T14:06:36.266Z,4.57
2023-01-11T14:10:47.019Z,7.07
2023-01-11T14:15:06.812Z,8.27
2023-01-11T14:19:44.766Z,4.57
2023-01-11T14:23:51.998Z,8.40
2023-01-11T14:28:14.884Z,3.63
2023-01-11T14:32:49.823Z,5.67
2023-01-11T14:37:11.263Z,5.87
2023-01-11T14:41:34.174Z,13.40
2023-01-11T14:45:50.904Z,4.80
2023-01-11T14:50:04.493Z,9.10
2023-01-11T14:54:12.175Z,7.80
2023-01-11T14:58:27.801Z,8.43
2023-01-11T15:02:29.440Z,7.10
2023-01-11T15:06:31.017Z,6.67
2023-01-11T15:10:35.992Z,8.80
2023-01-11T15:14:37.682Z,10.30
2023-01-11T15:18:45.647Z,8.53
2023-01-11T15:22:59.824Z,9.17
2023-01-11T15:27:01.895Z,12.83
2023-01-11T15:31:04.415Z,12.13
2023-01-11T15:35:24.806Z,10.87
2023-01-11T15:39:41.807Z,8.77
2023-01-11T15:43:49.511Z,15.40
2023-01-11T15:48:11.401Z,4.60
2023-01-11T15:52:19.201Z,13.97
2023-01-11T15:56:26.839Z,8.67
2023-01-11T16:00:31.690Z,10.63
2023-01-11T16:04:45.194Z,12.87
2023-01-11T16:09:05.223Z,13.53
2023-01-11T16:13:26.561Z,12.50
2023-01-11T16:17:28.555Z,15.33
2023-01-11T16:21:36.107Z,10.30
2023-01-11T16:25:40.565Z,10.13
2023-01-11T16:29:45.391Z,9.57
2023-01-11T16:33:49.556Z,12.60
2023-01-11T16:37:56.877Z,10.27
2023-01-11T16:42:05.196Z,10.53
2023-01-11T16:46:10.693Z,14.15
2023-01-11T16:50:24.515Z,10.83
2023-01-11T16:54:31.674Z,11.47
2023-01-11T16:58:38.523Z,10.57
2023-01-11T17:02:41.388Z,9.43
2023-01-11T17:06:42.530Z,11.55
2023-01-11T17:10:43.983Z,13.60
2023-01-11T17:15:10.962Z,10.97
2023-01-11T17:19:15.751Z,6.53
2023-01-11T17:23:17.003Z,11.07
2023-01-11T17:27:32.622Z,12.93
2023-01-11T17:31:36.282Z,11.70
2023-01-11T17:35:40.799Z,13.10
2023-01-11T17:39:46.901Z,14.13
2023-01-11T17:44:06.857Z,13.53
2023-01-11T17:48:12.067Z,14.03
2023-01-11T17:52:24.973Z,11.33
2023-01-11T17:56:38.005Z,14.85
2023-01-11T18:00:41.277Z,8.13
2023-01-11T18:04:42.474Z,11.83
2023-01-11T18:08:55.681Z,13.10
2023-01-11T18:12:59.248Z,12.95
2023-01-11T18:17:03.893Z,9.65
2023-01-11T18:21:27.161Z,7.10
2023-01-11T18:25:34.278Z,11.53
2023-01-11T18:29:39.031Z,13.50
2023-01-11T18:33:41.210Z,11.47
2023-01-11T18:37:42.422Z,15.28
2023-01-11T18:42:01.973Z,6.93
2023-01-11T18:46:03.788Z,12.20
2023-01-11T18:50:06.129Z,14.17
2023-01-11T18:54:12.079Z,7.07
2023-01-11T18:58:14.116Z,6.77
2023-01-11T19:02:25.182Z,11.87
2023-01-11T19:06:28.075Z,14.23
2023-01-11T19:10:29.481Z,13.00
2023-01-11T19:14:30.747Z,11.80
2023-01-11T19:18:35.161Z,12.87
2023-01-11T19:22:37.735Z,8.67
2023-01-11T19:26:39.010Z,8.30
2023-01-11T19:30:40.814Z,9.23
2023-01-11T19:34:42.232Z,8.63
2023-01-11T19:38:44.334Z,12.30
2023-01-11T19:42:47.129Z,6.73
2023-01-11T19:46:50.467Z,10.83
2023-01-11T19:50:51.455Z,7.27
2023-01-11T19:54:54.461Z,12.30
2023-01-11T19:58:55.609Z,9.97
2023-01-11T20:02:56.768Z,8.70
2023-01-11T20:06:57.952Z,10.47
2023-01-11T20:11:08.121Z,14.83
2023-01-11T20:15:10.239Z,10.83
2023-01-11T20:19:11.667Z,10.40
2023-01-11T20:23:12.905Z,13.55
2023-01-11T20:27:14.140Z,8.83
2023-01-11T20:31:16.508Z,6.50
2023-01-11T20:35:17.623Z,6.47
2023-01-11T20:39:18.887Z,12.60
2023-01-11T20:43:19.910Z,11.37
2023-01-11T20:47:20.901Z,17.33
2023-01-11T20:51:21.992Z,12.00
2023-01-11T20:55:23.107Z,12.37
2023-01-11T20:59:24.170Z,9.50
2023-01-11T21:03:25.186Z,13.17
2023-01-11T21:07:26.525Z,14.80
2023-01-11T21:11:28.959Z,9.70
2023-01-11T21:15:30.175Z,15.20
2023-01-11T21:19:31.448Z,13.33
2023-01-11T21:23:32.508Z,16.73
2023-01-11T21:27:33.545Z,12.80
2023-01-11T21:31:37.304Z,14.03
2023-01-11T21:35:38.449Z,13.57
2023-01-11T21:39:39.378Z,15.85
2023-01-11T21:43:42.153Z,10.37
2023-01-11T21:47:43.903Z,12.90
2023-01-11T21:51:45.057Z,16.40
2023-01-11T21:55:46.629Z,17.17
2023-01-11T21:59:47.573Z,20.27
2023-01-11T22:03:49.102Z,15.33
2023-01-11T22:07:50.208Z,18.17
2023-01-11T22:11:51.198Z,9.90
2023-01-11T22:15:52.514Z,12.43
2023-01-11T22:19:53.642Z,15.27
2023-01-11T22:23:56.826Z,7.37
2023-01-11T22:27:57.802Z,14.43
2023-01-11T22:32:00.716Z,12.93
2023-01-11T22:36:03.779Z,7.50
2023-01-11T22:40:05.754Z,13.90
2023-01-11T22:44:09.507Z,8.07
2023-01-11T22:48:10.533Z,6.77
2023-01-11T22:52:11.647Z,11.47
2023-01-11T22:56:17.176Z,14.63
2023-01-11T23:00:18.390Z,8.67
2023-01-11T23:04:19.327Z,10.30
2023-01-11T23:08:20.340Z,12.17
2023-01-11T23:12:40.132Z,17.00
2023-01-11T23:16:41.944Z,8.73
2023-01-11T23:20:43.081Z,8.73
2023-01-11T23:24:44.490Z,15.50
2023-01-11T23:28:46.469Z,13.73
2023-01-11T23:32:47.443Z,8.00
2023-01-11T23:36:48.527Z,14.33
2023-01-11T23:41:07.799Z,14.10
2023-01-11T23:45:09.444Z,8.33
2023-01-11T23:49:11.315Z,12.03
2023-01-11T23:53:12.429Z,11.77
2023-01-11T23:57:14.495Z,6.73
